createdAt,value
2018-02-15T00:01:58.279Z,98243.90
2018-02-15T00:04:25.944Z,98249.72
2018-02-15T00:06:53.607Z,98258.23
2018-02-15T00:09:21.298Z,98247.40
2018-02-15T00:11:48.971Z,98248.37
2018-02-15T00:14:16.659Z,98250.50
2018-02-15T00:16:44.324Z,98255.39
2018-02-15T00:19:12.028Z,98255.92
2018-02-15T00:21:39.698Z,98252.98
2018-02-15T00:24:07.355Z,98261.64
2018-02-15T00:26:35.036Z,98267.50
2018-02-15T00:29:02.715Z,98270.56
2018-02-15T00:31:30.513Z,98269.77
2018-02-15T00:33:58.171Z,98270.52
2018-02-15T00:36:26.040Z,98267.86
2018-02-15T00:38:53.710Z,98260.03
2018-02-15T00:41:21.368Z,98259.06
2018-02-15T00:43:49.060Z,98254.34
2018-02-15T00:46:16.728Z,98253.42
2018-02-15T00:48:44.420Z,98266.89
2018-02-15T00:51:12.082Z,98276.57
2018-02-15T00:53:39.763Z,98281.53
2018-02-15T00:56:07.544Z,98288.91
2018-02-15T00:58:35.206Z,98287.81
2018-02-15T01:01:02.883Z,98285.48
2018-02-15T01:03:30.544Z,98289.45
2018-02-15T01:05:58.231Z,98283.43
2018-02-15T01:08:25.908Z,98282.33
2018-02-15T01:10:53.580Z,98276.87
2018-02-15T01:13:21.270Z,98278.69
2018-02-15T01:15:48.960Z,98280.55
2018-02-15T01:18:16.906Z,98271.26
2018-02-15T01:20:44.569Z,98267.82
2018-02-15T01:23:12.235Z,98265.67
2018-02-15T01:25:40.027Z,98266.42
2018-02-15T01:28:07.697Z,98258.30
2018-02-15T01:30:35.394Z,98247.48
2018-02-15T01:33:03.067Z,98248.30
2018-02-15T01:35:30.900Z,98245.99
2018-02-15T01:37:58.575Z,98248.81
2018-02-15T01:40:26.273Z,98242.25
2018-02-15T01:42:53.964Z,98239.64
2018-02-15T01:45:21.634Z,98245.19
2018-02-15T01:47:49.335Z,98238.91
2018-02-15T01:50:17.073Z,98230.40
2018-02-15T01:52:45.143Z,98225.07
2018-02-15T01:55:12.814Z,98225.77
2018-02-15T01:57:40.510Z,98219.95
2018-02-15T02:00:08.240Z,98226.62
2018-02-15T02:02:35.900Z,98228.73
2018-02-15T02:05:03.594Z,98229.55
2018-02-15T02:07:31.272Z,98228.66
2018-02-15T02:09:59.346Z,98229.71
2018-02-15T02:14:53.976Z,98222.99
2018-02-15T02:17:21.676Z,98215.81
2018-02-15T02:19:49.348Z,98212.06
2018-02-15T02:22:17.040Z,98208.58
2018-02-15T02:24:44.708Z,98204.34
2018-02-15T02:27:12.576Z,98205.34
2018-02-15T02:29:40.239Z,98206.24
2018-02-15T02:32:07.912Z,98207.03
2018-02-15T02:34:35.614Z,98201.44
2018-02-15T02:37:03.292Z,98203.28
2018-02-15T02:39:30.984Z,98201.89
2018-02-15T02:41:58.648Z,98208.64
2018-02-15T02:44:26.512Z,98203.98
2018-02-15T02:46:54.175Z,98202.54
2018-02-15T02:49:21.848Z,98193.72
2018-02-15T02:51:49.640Z,98179.27
2018-02-15T02:54:17.319Z,98179.34
2018-02-15T02:56:45.781Z,98189.58
2018-02-15T02:59:13.449Z,98189.52
2018-02-15T03:01:41.484Z,98188.05
2018-02-15T03:04:09.152Z,98178.63
2018-02-15T03:06:36.821Z,98176.78
2018-02-15T03:09:04.572Z,98174.66
2018-02-15T03:11:32.236Z,98169.91
2018-02-15T03:13:59.928Z,98167.33
2018-02-15T03:16:27.619Z,98178.14
2018-02-15T03:18:55.503Z,98176.12
2018-02-15T03:21:23.180Z,98156.41
2018-02-15T03:23:50.851Z,98143.48
2018-02-15T03:26:18.547Z,98137.37
2018-02-15T03:28:46.215Z,98118.53
2018-02-15T03:31:13.917Z,98106.07
2018-02-15T03:33:41.710Z,98090.32
2018-02-15T03:36:09.575Z,98093.69
2018-02-15T03:38:37.255Z,98104.13
2018-02-15T03:41:04.927Z,98108.63
2018-02-15T03:43:32.620Z,98113.62
2018-02-15T03:46:00.307Z,98115.14
2018-02-15T03:48:27.997Z,98118.75
2018-02-15T03:50:55.683Z,98122.58
2018-02-15T03:53:23.504Z,98123.08
2018-02-15T03:55:51.162Z,98120.42
2018-02-15T03:58:18.835Z,98137.45
2018-02-15T04:00:46.518Z,98134.02
2018-02-15T04:03:14.208Z,98132.13
2018-02-15T04:05:41.911Z,98138.11
2018-02-15T04:08:09.583Z,98138.64
2018-02-15T04:10:37.619Z,98132.52
2018-02-15T04:13:05.287Z,98134.66
2018-02-15T04:15:32.956Z,98129.81
2018-02-15T04:18:00.750Z,98125.63
2018-02-15T04:20:28.417Z,98121.17
2018-02-15T04:22:56.116Z,98120.65
2018-02-15T04:25:23.784Z,98118.33
2018-02-15T04:27:51.735Z,98119.91
2018-02-15T04:30:19.403Z,98124.32
2018-02-15T04:32:47.094Z,98127.63
2018-02-15T04:35:14.783Z,98133.37
2018-02-15T04:37:42.557Z,98137.00
2018-02-15T04:40:10.251Z,98143.67
2018-02-15T04:42:37.914Z,98148.16
2018-02-15T04:45:05.750Z,98148.67
2018-02-15T04:47:33.459Z,98145.59
2018-02-15T04:50:01.136Z,98147.44
2018-02-15T04:52:28.863Z,98151.48
2018-02-15T04:54:56.531Z,98153.20
2018-02-15T04:57:24.217Z,98151.07
2018-02-15T04:59:51.885Z,98151.26
2018-02-15T05:02:19.883Z,98151.91
2018-02-15T05:04:47.547Z,98151.03
2018-02-15T05:07:15.216Z,98160.54
2018-02-15T05:09:42.904Z,98166.30
2018-02-15T05:12:10.567Z,98158.64
2018-02-15T05:14:38.260Z,98164.20
2018-02-15T05:17:05.969Z,98165.83
2018-02-15T05:19:33.684Z,98156.84
2018-02-15T05:22:01.367Z,98144.59
2018-02-15T05:24:29.045Z,98147.01
2018-02-15T05:26:56.728Z,98143.60
2018-02-15T05:29:24.400Z,98135.44
2018-02-15T05:31:52.146Z,98131.05
2018-02-15T05:34:19.912Z,98129.48
2018-02-15T05:36:47.772Z,98131.12
2018-02-15T05:39:15.444Z,98129.77
2018-02-15T05:41:43.103Z,98121.28
2018-02-15T05:44:10.866Z,98120.30
2018-02-15T05:46:38.538Z,98119.58
2018-02-15T05:49:06.224Z,98114.98
2018-02-15T05:51:33.887Z,98109.85
2018-02-15T05:54:01.817Z,98110.06
2018-02-15T05:56:29.496Z,98112.84
2018-02-15T05:58:57.166Z,98115.81
2018-02-15T06:01:24.911Z,98117.19
2018-02-15T06:03:52.580Z,98116.80
2018-02-15T06:06:20.279Z,98121.42
2018-02-15T06:08:47.951Z,98131.94
2018-02-15T06:11:15.755Z,98119.53
2018-02-15T06:13:43.518Z,98121.96
2018-02-15T06:16:11.184Z,98126.81
2018-02-15T06:18:38.871Z,98122.73
2018-02-15T06:21:06.539Z,98131.55
2018-02-15T06:23:34.678Z,98137.08
2018-02-15T06:26:02.345Z,98146.68
2018-02-15T06:28:30.013Z,98145.88
2018-02-15T06:30:57.703Z,98146.04
2018-02-15T06:33:25.365Z,98142.71
2018-02-15T06:35:53.411Z,98147.19
2018-02-15T06:38:21.089Z,98146.33
2018-02-15T06:40:48.835Z,98137.72
2018-02-15T06:43:16.527Z,98132.66
2018-02-15T06:45:44.183Z,98140.30
2018-02-15T06:48:11.871Z,98142.22
2018-02-15T06:50:39.535Z,98144.82
2018-02-15T06:53:07.215Z,98143.27
2018-02-15T06:55:34.896Z,98134.84
2018-02-15T06:58:02.593Z,98127.45
2018-02-15T07:00:30.265Z,98119.89
2018-02-15T07:02:57.988Z,98120.58
2018-02-15T07:05:25.671Z,98122.60
2018-02-15T07:07:53.341Z,98117.70
2018-02-15T07:10:21.033Z,98115.73
2018-02-15T07:12:48.750Z,98106.09
2018-02-15T07:15:16.489Z,98104.38
2018-02-15T07:17:44.140Z,98101.02
2018-02-15T07:20:11.927Z,98105.70
2018-02-15T07:22:39.607Z,98114.69
2018-02-15T07:25:07.275Z,98110.27
2018-02-15T07:27:34.962Z,98109.72
2018-02-15T07:30:02.691Z,98110.84
2018-02-15T07:32:30.382Z,98113.68
2018-02-15T07:34:58.055Z,98108.69
2018-02-15T07:37:25.783Z,98105.29
2018-02-15T07:39:53.479Z,98103.21
2018-02-15T07:42:21.167Z,98110.06
2018-02-15T07:44:48.868Z,98114.82
2018-02-15T07:47:16.552Z,98122.91
2018-02-15T07:49:44.264Z,98119.44
2018-02-15T07:52:11.928Z,98124.73
2018-02-15T07:54:39.647Z,98123.45
2018-02-15T07:57:07.386Z,98119.34
2018-02-15T07:59:35.154Z,98116.13
2018-02-15T08:02:02.848Z,98117.21
2018-02-15T08:04:30.544Z,98118.42
2018-02-15T08:06:58.228Z,98123.84
2018-02-15T08:09:25.907Z,98126.66
2018-02-15T08:11:53.664Z,98132.70
2018-02-15T08:14:21.348Z,98133.86
2018-02-15T08:16:49.021Z,98142.68
2018-02-15T08:19:16.717Z,98146.14
2018-02-15T08:21:44.400Z,98152.42
2018-02-15T08:24:12.103Z,98146.58
2018-02-15T08:26:39.780Z,98153.34
2018-02-15T08:29:07.502Z,98149.25
2018-02-15T08:31:35.267Z,98144.82
2018-02-15T08:34:02.944Z,98136.31
2018-02-15T08:36:30.641Z,98133.69
2018-02-15T08:38:58.318Z,98133.16
2018-02-15T08:41:26.013Z,98131.14
2018-02-15T08:43:53.771Z,98126.30
2018-02-15T08:46:21.842Z,98132.13
2018-02-15T08:48:49.506Z,98142.19
2018-02-15T08:51:17.192Z,98139.16
2018-02-15T08:53:44.881Z,98134.20
2018-02-15T08:56:12.547Z,98130.55
2018-02-15T08:58:40.342Z,98135.95
2018-02-15T09:01:08.006Z,98135.46
2018-02-15T09:03:35.993Z,98129.63
2018-02-15T09:06:03.667Z,98128.06
2018-02-15T09:08:31.417Z,98127.13
2018-02-15T09:10:59.409Z,98113.97
2018-02-15T09:13:27.276Z,98115.42
2018-02-15T09:15:54.974Z,98117.62
2018-02-15T09:18:22.646Z,98106.91
2018-02-15T09:20:50.647Z,98108.98
2018-02-15T09:23:18.572Z,98114.49
2018-02-15T09:25:46.215Z,98109.67
2018-02-15T09:28:13.904Z,98107.50
2018-02-15T09:30:41.588Z,98117.50
2018-02-15T09:33:09.304Z,98106.44
2018-02-15T09:35:36.983Z,98107.74
2018-02-15T09:38:04.902Z,98092.05
2018-02-15T09:40:32.899Z,98103.59
2018-02-15T09:43:01.120Z,98106.36
2018-02-15T09:45:28.801Z,98108.20
2018-02-15T09:47:56.537Z,98104.58
2018-02-15T09:50:24.257Z,98116.92
2018-02-15T09:52:52.233Z,98124.00
2018-02-15T09:55:20.207Z,98113.70
2018-02-15T09:57:47.882Z,98114.83
2018-02-15T10:00:15.795Z,98115.38
2018-02-15T10:02:43.488Z,98113.53
2018-02-15T10:05:11.159Z,98117.92
2018-02-15T10:07:38.848Z,98117.76
2018-02-15T10:10:07.187Z,98120.50
2018-02-15T10:12:35.382Z,98123.89
2018-02-15T10:15:03.347Z,98119.88
2018-02-15T10:17:31.032Z,98130.46
2018-02-15T10:19:58.727Z,98122.98
2018-02-15T10:22:26.397Z,98121.34
2018-02-15T10:24:54.115Z,98120.02
2018-02-15T10:27:21.796Z,98112.55
2018-02-15T10:29:49.506Z,98120.05
2018-02-15T10:32:17.304Z,98116.55
2018-02-15T10:34:45.030Z,98118.97
2018-02-15T10:37:12.730Z,98122.44
2018-02-15T10:39:40.488Z,98115.16
2018-02-15T10:42:08.295Z,98115.30
2018-02-15T10:44:36.310Z,98112.55
2018-02-15T10:47:04.214Z,98104.55
2018-02-15T10:49:31.889Z,98103.13
2018-02-15T10:52:02.013Z,98108.45
2018-02-15T10:54:29.958Z,98106.55
2018-02-15T10:56:57.627Z,98111.52
2018-02-15T10:59:25.324Z,98103.07
2018-02-15T11:01:58.593Z,98103.07
2018-02-15T11:04:31.895Z,98086.38
2018-02-15T11:06:59.582Z,98077.22
2018-02-15T11:09:27.454Z,98072.28
2018-02-15T11:11:55.271Z,98066.72
2018-02-15T11:14:23.369Z,98072.19
2018-02-15T11:16:51.954Z,98061.34
2018-02-15T11:19:19.602Z,98069.47
2018-02-15T11:21:47.300Z,98061.95
2018-02-15T11:24:14.966Z,98063.64
2018-02-15T11:26:42.824Z,98068.40
2018-02-15T11:29:10.495Z,98068.77
2018-02-15T11:31:38.164Z,98063.33
2018-02-15T11:34:05.968Z,98059.59
2018-02-15T11:36:33.652Z,98058.89
2018-02-15T11:39:01.339Z,98065.02
2018-02-15T11:41:29.344Z,98067.04
2018-02-15T11:43:57.850Z,98056.69
2018-02-15T11:46:25.523Z,98051.94
2018-02-15T11:48:53.200Z,98059.23
2018-02-15T11:51:20.960Z,98057.87
2018-02-15T11:53:48.632Z,98047.97
2018-02-15T11:56:16.312Z,98050.14
2018-02-15T11:58:43.971Z,98048.10
2018-02-15T12:01:12.039Z,98046.06
2018-02-15T12:03:39.708Z,98044.09
2018-02-15T12:06:07.374Z,98032.95
2018-02-15T12:08:35.067Z,98031.19
2018-02-15T12:11:02.923Z,98033.98
2018-02-15T12:13:31.153Z,98038.21
2018-02-15T12:15:58.843Z,98030.55
2018-02-15T12:18:26.606Z,98024.38
2018-02-15T12:20:54.306Z,98009.81
2018-02-15T12:23:21.975Z,98017.00
2018-02-15T12:25:49.957Z,98012.84
2018-02-15T12:28:17.625Z,98014.52
2018-02-15T12:30:45.294Z,98004.66
2018-02-15T12:33:13.000Z,98015.55
2018-02-15T12:35:40.707Z,98007.36
2018-02-15T12:38:08.518Z,98007.22
2018-02-15T12:40:36.183Z,98005.02
2018-02-15T12:43:04.395Z,98010.41
2018-02-15T12:45:32.082Z,97999.81
2018-02-15T12:48:03.831Z,98010.06
2018-02-15T12:50:31.745Z,98011.62
2018-02-15T12:52:59.419Z,98015.03
2018-02-15T12:55:27.256Z,98007.61
2018-02-15T12:57:55.001Z,98004.16
2018-02-15T13:00:22.730Z,98011.09
2018-02-15T13:02:50.411Z,98015.89
2018-02-15T13:05:18.091Z,98007.69
2018-02-15T13:07:45.802Z,98010.64
2018-02-15T13:10:13.463Z,98017.97
2018-02-15T13:12:52.767Z,98007.16
2018-02-15T13:15:32.247Z,98007.06
2018-02-15T13:17:59.919Z,98006.72
2018-02-15T13:20:29.077Z,98010.66
2018-02-15T13:22:56.807Z,98003.84
2018-02-15T13:25:24.474Z,98004.73
2018-02-15T13:28:04.021Z,98009.00
2018-02-15T13:30:31.684Z,98003.52
2018-02-15T13:32:59.572Z,98003.56
2018-02-15T13:35:27.235Z,98006.09
2018-02-15T13:37:54.935Z,98012.87
2018-02-15T13:40:22.662Z,98013.52
2018-02-15T13:42:50.360Z,98015.45
2018-02-15T13:47:45.054Z,98011.94
2018-02-15T13:50:12.782Z,98010.98
2018-02-15T13:52:40.439Z,98015.34
2018-02-15T13:55:08.102Z,98016.84
2018-02-15T13:57:35.795Z,98019.49
2018-02-15T14:00:03.474Z,98019.31
2018-02-15T14:02:31.172Z,98023.70
2018-02-15T14:04:59.206Z,98027.77
2018-02-15T14:07:27.047Z,98023.58
2018-02-15T14:10:04.971Z,98032.07
2018-02-15T14:12:40.425Z,98037.66
2018-02-15T14:15:08.779Z,98028.03
2018-02-15T14:17:36.495Z,98032.39
2018-02-15T14:20:04.209Z,98026.36
2018-02-15T14:22:31.868Z,98026.36
2018-02-15T14:24:59.568Z,98025.98
2018-02-15T14:27:27.252Z,98042.61
2018-02-15T14:29:55.158Z,98039.95
2018-02-15T14:32:23.037Z,98039.05
2018-02-15T14:34:50.717Z,98042.79
2018-02-15T14:37:18.791Z,98047.43
2018-02-15T14:39:46.660Z,98050.74
2018-02-15T14:42:14.356Z,98051.02
2018-02-15T14:44:42.020Z,98055.02
2018-02-15T14:47:10.152Z,98050.15
2018-02-15T14:49:37.826Z,98056.87
2018-02-15T14:52:05.779Z,98057.73
2018-02-15T14:54:33.856Z,98049.97
2018-02-15T14:57:01.521Z,98058.78
2018-02-15T14:59:29.224Z,98057.07
2018-02-15T15:01:56.926Z,98061.30
2018-02-15T15:04:24.784Z,98058.28
2018-02-15T15:06:53.057Z,98069.34
2018-02-15T15:09:20.959Z,98068.97
2018-02-15T15:11:48.645Z,98060.89
2018-02-15T15:14:16.312Z,98066.13
2018-02-15T15:16:47.584Z,98069.00
2018-02-15T15:19:15.636Z,98071.99
2018-02-15T15:21:43.339Z,98074.84
2018-02-15T15:24:11.046Z,98069.40
2018-02-15T15:26:38.742Z,98070.42
2018-02-15T15:29:06.443Z,98066.34
2018-02-15T15:31:34.117Z,98071.59
2018-02-15T15:34:01.959Z,98074.24
2018-02-15T15:36:29.747Z,98067.08
2018-02-15T15:38:57.691Z,98078.77
2018-02-15T15:41:25.890Z,98074.38
2018-02-15T15:43:53.583Z,98061.49
2018-02-15T15:46:21.300Z,98070.30
2018-02-15T15:48:48.966Z,98075.13
2018-02-15T15:51:16.715Z,98066.58
2018-02-15T15:53:44.488Z,98061.38
2018-02-15T15:56:12.150Z,98050.89
2018-02-15T15:58:39.831Z,98062.08
2018-02-15T16:01:07.508Z,98065.20
2018-02-15T16:03:35.199Z,98069.42
2018-02-15T16:06:02.878Z,98067.94
2018-02-15T16:08:31.198Z,98070.88
2018-02-15T16:10:59.069Z,98068.45
2018-02-15T16:13:26.766Z,98065.52
2018-02-15T16:15:54.458Z,98064.73
2018-02-15T16:18:22.136Z,98062.84
2018-02-15T16:20:49.827Z,98060.19
2018-02-15T16:23:17.498Z,98060.61
2018-02-15T16:25:45.633Z,98070.79
2018-02-15T16:28:13.296Z,98066.98
2018-02-15T16:30:40.966Z,98069.12
2018-02-15T16:33:08.664Z,98079.21
2018-02-15T16:35:36.351Z,98081.97
2018-02-15T16:38:04.372Z,98090.63
2018-02-15T16:40:32.284Z,98084.91
2018-02-15T16:43:00.180Z,98088.22
2018-02-15T16:45:27.865Z,98088.65
2018-02-15T16:47:55.531Z,98080.51
2018-02-15T16:50:23.249Z,98094.59
2018-02-15T16:52:50.929Z,98101.67
2018-02-15T16:55:18.627Z,98099.70
2018-02-15T16:57:46.323Z,98094.66
2018-02-15T17:00:14.431Z,98095.05
2018-02-15T17:02:42.111Z,98098.30
2018-02-15T17:05:09.772Z,98096.76
2018-02-15T17:07:37.658Z,98103.38
2018-02-15T17:10:05.615Z,98100.53
2018-02-15T17:12:33.311Z,98105.23
2018-02-15T17:15:00.975Z,98101.52
2018-02-15T17:17:28.885Z,98101.03
2018-02-15T17:19:56.547Z,98099.08
2018-02-15T17:22:24.216Z,98089.56
2018-02-15T17:24:51.899Z,98093.13
2018-02-15T17:27:19.587Z,98100.13
2018-02-15T17:29:47.316Z,98095.52
2018-02-15T17:32:14.992Z,98099.16
2018-02-15T17:34:42.657Z,98098.92
2018-02-15T17:37:10.669Z,98097.47
2018-02-15T17:39:38.327Z,98104.25
2018-02-15T17:42:06.020Z,98109.16
2018-02-15T17:44:33.689Z,98109.17
2018-02-15T17:47:01.656Z,98108.98
2018-02-15T17:49:29.387Z,98110.19
2018-02-15T17:51:57.034Z,98118.70
2018-02-15T17:54:24.721Z,98118.86
2018-02-15T17:56:52.451Z,98124.68
2018-02-15T17:59:20.134Z,98120.69
2018-02-15T18:01:47.799Z,98120.55
2018-02-15T18:04:15.547Z,98127.90
2018-02-15T18:06:43.224Z,98127.09
2018-02-15T18:09:10.891Z,98131.77
2018-02-15T18:11:38.581Z,98129.62
2018-02-15T18:14:06.242Z,98136.28
2018-02-15T18:16:34.785Z,98137.09
2018-02-15T18:19:02.459Z,98128.77
2018-02-15T18:21:30.141Z,98135.73
2018-02-15T18:23:57.804Z,98136.81
2018-02-15T18:26:25.888Z,98134.86
2018-02-15T18:28:53.563Z,98143.80
2018-02-15T18:31:21.240Z,98148.16
2018-02-15T18:33:48.940Z,98139.92
2018-02-15T18:36:16.611Z,98137.73
2018-02-15T18:38:44.303Z,98135.57
2018-02-15T18:41:11.981Z,98129.59
2018-02-15T18:43:39.672Z,98120.37
2018-02-15T18:46:07.348Z,98122.66
2018-02-15T18:48:35.084Z,98121.86
2018-02-15T18:51:02.760Z,98116.56
2018-02-15T18:53:30.434Z,98110.09
2018-02-15T18:55:58.137Z,98117.59
2018-02-15T18:58:25.828Z,98113.81
2018-02-15T19:00:53.520Z,98118.05
2018-02-15T19:03:21.233Z,98123.86
2018-02-15T19:05:49.311Z,98127.02
2018-02-15T19:08:17.127Z,98123.50
2018-02-15T19:10:44.824Z,98126.37
2018-02-15T19:13:12.518Z,98125.72
2018-02-15T19:15:40.215Z,98115.88
2018-02-15T19:18:07.927Z,98116.92
2018-02-15T19:20:35.605Z,98107.30
2018-02-15T19:23:03.469Z,98113.31
2018-02-15T19:25:31.156Z,98116.03
2018-02-15T19:27:58.843Z,98123.63
2018-02-15T19:30:26.557Z,98128.05
2018-02-15T19:32:54.251Z,98127.98
2018-02-15T19:35:21.948Z,98123.44
2018-02-15T19:37:49.633Z,98129.47
2018-02-15T19:40:17.337Z,98123.72
2018-02-15T19:42:45.006Z,98132.13
2018-02-15T19:45:14.545Z,98133.62
2018-02-15T19:47:42.225Z,98138.95
2018-02-15T19:50:09.891Z,98144.43
2018-02-15T19:52:37.601Z,98152.73
2018-02-15T19:55:05.278Z,98147.67
2018-02-15T19:57:32.977Z,98147.28
2018-02-15T20:00:00.655Z,98143.97
2018-02-15T20:02:28.389Z,98140.92
2018-02-15T20:04:56.121Z,98133.06
2018-02-15T20:07:23.791Z,98131.20
2018-02-15T20:09:51.485Z,98133.09
2018-02-15T20:12:19.166Z,98139.32
2018-02-15T20:14:46.874Z,98130.00
2018-02-15T20:17:14.569Z,98129.48
2018-02-15T20:19:42.379Z,98133.84
2018-02-15T20:22:10.731Z,98128.95
2018-02-15T20:24:38.395Z,98136.78
2018-02-15T20:27:11.667Z,98139.88
2018-02-15T20:29:39.336Z,98133.69
2018-02-15T20:32:07.039Z,98137.15
2018-02-15T20:34:34.708Z,98137.92
2018-02-15T20:37:02.408Z,98142.08
2018-02-15T20:39:35.575Z,98148.39
2018-02-15T20:42:03.276Z,98136.37
2018-02-15T20:44:30.967Z,98140.98
2018-02-15T20:46:58.648Z,98143.16
2018-02-15T20:49:32.001Z,98146.63
2018-02-15T20:52:05.136Z,98148.88
2018-02-15T20:54:38.408Z,98153.53
2018-02-15T20:57:06.084Z,98156.72
2018-02-15T20:59:33.785Z,98157.96
2018-02-15T21:02:01.471Z,98151.80
2018-02-15T21:04:29.551Z,98153.31
2018-02-15T21:06:57.224Z,98163.27
2018-02-15T21:09:24.900Z,98152.78
2018-02-15T21:11:52.595Z,98132.89
2018-02-15T21:14:20.293Z,98118.98
2018-02-15T21:16:48.003Z,98113.45
2018-02-15T21:19:15.680Z,98105.66
2018-02-15T21:21:43.489Z,98101.08
2018-02-15T21:24:11.179Z,98119.78
2018-02-15T21:26:38.886Z,98120.75
2018-02-15T21:29:06.588Z,98123.38
2018-02-15T21:31:34.266Z,98123.56
2018-02-15T21:34:01.985Z,98127.36
2018-02-15T21:36:29.666Z,98131.81
2018-02-15T21:38:57.400Z,98125.25
2018-02-15T21:41:25.070Z,98133.55
2018-02-15T21:43:53.031Z,98139.73
2018-02-15T21:46:20.727Z,98143.41
2018-02-15T21:48:48.395Z,98138.63
2018-02-15T21:51:16.098Z,98139.88
2018-02-15T21:53:43.774Z,98137.94
2018-02-15T21:56:11.671Z,98133.58
2018-02-15T21:58:39.355Z,98132.17
2018-02-15T22:01:07.106Z,98140.32
2018-02-15T22:03:34.801Z,98131.04
2018-02-15T22:06:02.483Z,98139.41
2018-02-15T22:08:30.173Z,98134.01
2018-02-15T22:10:57.839Z,98127.92
2018-02-15T22:13:25.571Z,98134.69
2018-02-15T22:15:53.250Z,98135.73
2018-02-15T22:18:20.924Z,98138.95
2018-02-15T22:20:48.635Z,98135.38
2018-02-15T22:23:16.326Z,98155.78
2018-02-15T22:25:44.024Z,98157.94
2018-02-15T22:28:11.701Z,98164.27
2018-02-15T22:30:39.520Z,98160.19
2018-02-15T22:33:07.224Z,98166.06
2018-02-15T22:35:34.888Z,98167.22
2018-02-15T22:38:02.583Z,98169.61
2018-02-15T22:40:30.263Z,98173.89
2018-02-15T22:42:57.954Z,98170.95
2018-02-15T22:45:25.651Z,98173.01
2018-02-15T22:47:53.439Z,98176.13
2018-02-15T22:50:21.121Z,98172.48
2018-02-15T22:52:48.801Z,98175.41
2018-02-15T22:55:16.506Z,98173.69
2018-02-15T22:57:44.172Z,98183.71
2018-02-15T23:00:11.860Z,98176.64
2018-02-15T23:02:39.543Z,98171.77
2018-02-15T23:05:07.536Z,98174.22
2018-02-15T23:07:35.207Z,98170.75
2018-02-15T23:10:02.879Z,98161.81
2018-02-15T23:12:30.591Z,98158.59
2018-02-15T23:14:58.255Z,98162.92
2018-02-15T23:17:25.961Z,98163.77
2018-02-15T23:19:53.640Z,98166.47
2018-02-15T23:22:21.439Z,98177.80
2018-02-15T23:24:49.113Z,98182.44
2018-02-15T23:27:16.792Z,98181.91
2018-02-15T23:29:44.493Z,98185.34
2018-02-15T23:32:12.167Z,98184.13
2018-02-15T23:34:39.870Z,98182.47
2018-02-15T23:37:07.569Z,98175.78
2018-02-15T23:39:35.301Z,98178.27
2018-02-15T23:42:02.975Z,98181.38
2018-02-15T23:44:30.676Z,98173.47
2018-02-15T23:46:58.383Z,98178.04
2018-02-15T23:49:26.067Z,98172.91
2018-02-15T23:51:53.760Z,98176.81
2018-02-15T23:54:21.441Z,98184.70
2018-02-15T23:56:49.159Z,98176.59
2018-02-15T23:59:16.833Z,98181.97
